createdAt,value
2022-09-01T03:58:45.860Z,21.43
2022-09-01T03:59:46.091Z,21.96
2022-09-01T04:00:48.689Z,22.43
2022-09-01T04:01:44.387Z,22.84
2022-09-01T04:02:44.381Z,23.22
2022-09-01T04:03:46.112Z,23.60
2022-09-01T04:04:44.441Z,23.96
2022-09-01T04:05:46.172Z,24.29
2022-09-01T04:06:44.568Z,24.59
2022-09-01T04:07:44.546Z,24.90
2022-09-01T04:08:46.280Z,25.15
2022-09-01T04:09:44.634Z,25.38
2022-09-01T04:10:46.352Z,25.62
2022-09-01T04:11:46.070Z,25.79
2022-09-01T04:12:46.363Z,26.00
2022-09-01T04:13:46.600Z,26.16
2022-09-01T04:14:46.325Z,26.32
2022-09-01T04:15:45.548Z,26.47
2022-09-01T04:16:45.003Z,26.60
2022-09-01T04:17:44.885Z,26.74
2022-09-01T04:18:46.615Z,26.82
2022-09-01T04:19:46.836Z,26.93
2022-09-01T04:20:44.934Z,27.09
2022-09-01T04:21:46.636Z,27.17
2022-09-01T04:22:44.976Z,27.24
2022-09-01T04:23:45.029Z,27.40
2022-09-01T04:24:45.274Z,27.44
2022-09-01T04:25:45.044Z,27.48
2022-09-01T04:26:48.199Z,27.52
2022-09-01T04:27:45.119Z,27.62
2022-09-01T04:28:45.159Z,27.64
2022-09-01T04:29:45.186Z,27.69
2022-09-01T04:30:45.246Z,27.71
2022-09-01T04:31:47.026Z,27.78
2022-09-01T04:32:45.260Z,27.78
2022-09-01T04:33:45.286Z,27.81
2022-09-01T04:34:47.019Z,27.89
2022-09-01T04:35:45.370Z,27.95
2022-09-01T04:36:45.340Z,27.96
2022-09-01T04:37:45.386Z,28.00
2022-09-01T04:38:45.397Z,28.00
2022-09-01T04:39:52.491Z,28.03
2022-09-01T04:40:45.435Z,28.09
2022-09-01T04:41:47.145Z,28.06
2022-09-01T04:42:47.397Z,28.07
2022-09-01T04:43:46.182Z,28.09
2022-09-01T04:44:46.333Z,28.10
2022-09-01T04:45:46.300Z,28.16
2022-09-01T04:46:48.696Z,28.17
2022-09-01T04:47:47.516Z,28.17
2022-09-01T04:48:46.079Z,28.24
2022-09-01T04:49:47.313Z,28.26
2022-09-01T04:50:47.569Z,28.27
2022-09-01T04:51:48.967Z,28.27
2022-09-01T04:52:48.780Z,28.28
2022-09-01T04:53:47.599Z,28.27
2022-09-01T04:54:46.675Z,28.32
2022-09-01T04:55:49.837Z,28.28
2022-09-01T04:56:46.467Z,28.28
2022-09-01T04:57:47.613Z,28.26
2022-09-01T04:58:45.794Z,28.27
2022-09-01T04:59:48.956Z,28.26
2022-09-01T05:00:47.795Z,28.26
2022-09-01T05:01:45.871Z,28.26
2022-09-01T05:02:45.944Z,28.30
2022-09-01T05:03:45.887Z,28.40
2022-09-01T05:04:47.626Z,28.40
2022-09-01T05:05:45.919Z,28.34
2022-09-01T05:06:45.907Z,28.39
2022-09-01T05:07:45.996Z,28.39
2022-09-01T05:08:47.668Z,28.32
2022-09-01T05:09:45.989Z,28.41
2022-09-01T05:10:46.029Z,28.39
2022-09-01T05:11:46.059Z,28.44
2022-09-01T05:12:46.080Z,28.46
2022-09-01T05:13:47.812Z,28.48
2022-09-01T05:14:48.032Z,28.40
2022-09-01T05:15:46.133Z,28.43
2022-09-01T05:16:46.242Z,28.43
2022-09-01T05:17:46.264Z,28.43
2022-09-01T05:18:47.153Z,28.44
2022-09-01T05:19:47.382Z,28.52
2022-09-01T05:20:46.184Z,28.47
2022-09-01T05:21:46.224Z,28.46
2022-09-01T05:22:47.423Z,28.47
2022-09-01T05:23:47.225Z,28.46
2022-09-01T05:24:46.254Z,28.48
2022-09-01T05:25:48.003Z,28.48
2022-09-01T05:26:46.278Z,28.47
2022-09-01T05:27:47.615Z,28.43
2022-09-01T05:28:46.355Z,28.48
2022-09-01T05:29:46.747Z,28.48
2022-09-01T05:30:47.909Z,28.46
2022-09-01T05:31:46.432Z,28.39
2022-09-01T05:32:48.071Z,28.41
2022-09-01T05:33:46.380Z,28.36
2022-09-01T05:34:46.425Z,28.37
2022-09-01T05:35:47.337Z,28.46
2022-09-01T05:36:48.189Z,28.48
2022-09-01T05:37:48.419Z,28.48
2022-09-01T05:38:49.589Z,28.44
2022-09-01T05:39:47.474Z,28.47
2022-09-01T05:40:46.562Z,28.48
2022-09-01T05:41:46.519Z,28.47
2022-09-01T05:42:46.549Z,28.51
2022-09-01T05:43:48.561Z,28.46
2022-09-01T05:44:48.158Z,28.48
2022-09-01T05:46:05.561Z,28.48
2022-09-01T05:46:46.718Z,28.46
2022-09-01T05:47:46.934Z,28.44
2022-09-01T05:48:46.697Z,28.44
2022-09-01T05:49:48.769Z,28.41
2022-09-01T05:50:47.431Z,28.46
2022-09-01T05:51:50.672Z,28.48
2022-09-01T05:52:47.042Z,28.48
2022-09-01T05:53:47.686Z,28.50
2022-09-01T05:54:47.748Z,28.54
2022-09-01T05:55:46.792Z,28.52
2022-09-01T05:56:47.775Z,28.52
2022-09-01T05:57:49.036Z,28.54
2022-09-01T05:59:48.364Z,28.55
2022-09-01T06:02:28.780Z,28.50
2022-09-01T06:03:22.901Z,28.46
2022-09-01T06:04:17.610Z,28.47
2022-09-01T06:05:17.073Z,28.48
2022-09-01T06:06:15.374Z,28.51
2022-09-01T06:07:17.124Z,28.54
2022-09-01T06:08:15.419Z,28.51
2022-09-01T06:09:16.163Z,28.58
2022-09-01T06:10:18.744Z,28.60
2022-09-01T06:11:16.224Z,28.62
2022-09-01T06:12:17.405Z,28.64
2022-09-01T06:13:17.091Z,28.65
2022-09-01T06:14:15.556Z,28.68
2022-09-01T06:15:15.584Z,28.71
2022-09-01T06:16:17.371Z,28.78
2022-09-01T06:17:15.636Z,28.79
2022-09-01T06:18:17.387Z,28.83
2022-09-01T06:19:15.627Z,28.83
2022-09-01T06:20:15.628Z,28.89
2022-09-01T06:21:15.707Z,28.89
2022-09-01T06:22:15.689Z,28.92
2022-09-01T06:23:17.408Z,28.98
2022-09-01T06:24:15.688Z,29.02
2022-09-01T06:25:17.469Z,29.05
2022-09-01T06:26:18.632Z,29.07
2022-09-01T06:27:17.401Z,29.12
2022-09-01T06:28:25.842Z,29.07
2022-09-01T06:29:16.550Z,29.10
2022-09-01T06:30:16.366Z,29.10
2022-09-01T06:31:15.857Z,29.13
2022-09-01T06:32:17.549Z,29.16
2022-09-01T06:33:17.473Z,29.17
2022-09-01T06:34:16.591Z,29.13
2022-09-01T06:35:15.871Z,29.12
2022-09-01T06:36:15.932Z,29.12
2022-09-01T06:37:15.902Z,29.23
2022-09-01T06:38:17.163Z,29.19
2022-09-01T06:39:16.924Z,29.20
2022-09-01T06:40:16.839Z,29.22
2022-09-01T06:41:16.089Z,29.27
2022-09-01T06:42:16.042Z,29.25
2022-09-01T06:43:17.974Z,29.32
2022-09-01T06:44:15.986Z,29.27
2022-09-01T06:45:17.838Z,29.32
2022-09-01T06:46:18.044Z,29.34
2022-09-01T06:47:16.076Z,29.33
2022-09-01T06:48:16.227Z,29.36
2022-09-01T06:49:16.129Z,29.47
2022-09-01T06:51:21.348Z,29.44
2022-09-01T06:52:16.897Z,29.49
2022-09-01T06:54:21.051Z,29.56
2022-09-01T06:55:16.315Z,29.61
2022-09-01T06:56:17.998Z,29.57
2022-09-01T06:58:16.323Z,29.65
2022-09-01T06:59:18.173Z,29.65
2022-09-01T07:00:16.287Z,29.68
2022-09-01T07:01:17.614Z,29.70
2022-09-01T07:02:17.748Z,29.74
2022-09-01T07:03:17.145Z,29.78
2022-09-01T07:04:17.059Z,29.81
2022-09-01T07:08:16.382Z,29.87
2022-09-01T07:09:22.251Z,29.89
2022-09-01T07:10:21.439Z,29.87
2022-09-01T07:11:20.002Z,29.89
2022-09-01T07:12:31.955Z,29.95
2022-09-01T07:13:18.305Z,29.99
2022-09-01T07:14:16.535Z,30.01
2022-09-01T07:16:41.830Z,30.09
2022-09-01T07:17:23.907Z,30.14
2022-09-01T07:18:19.692Z,30.16
2022-09-01T07:19:18.174Z,30.18
2022-09-01T07:20:27.235Z,30.19
2022-09-01T07:23:20.447Z,30.22
2022-09-01T07:24:21.190Z,30.23
2022-09-01T07:25:16.714Z,30.29
2022-09-01T07:26:24.686Z,30.36
2022-09-01T07:27:16.787Z,30.37
2022-09-01T07:28:17.809Z,30.39
2022-09-01T07:29:20.467Z,30.42
2022-09-01T07:30:17.668Z,30.43
2022-09-01T07:35:17.972Z,30.44
2022-09-01T07:36:32.203Z,30.50
2022-09-01T07:38:47.258Z,30.53
2022-09-01T07:43:17.463Z,30.60
2022-09-01T07:44:17.114Z,30.62
2022-09-01T07:45:26.922Z,30.64
2022-09-01T07:47:51.824Z,30.70
2022-09-01T07:48:35.948Z,30.67
2022-09-01T07:50:07.972Z,30.70
2022-09-01T07:51:46.935Z,30.71
2022-09-01T07:52:43.992Z,30.75
2022-09-01T07:53:44.687Z,30.81
2022-09-01T07:54:44.064Z,30.80
2022-09-01T07:55:48.293Z,30.77
2022-09-01T07:56:45.191Z,30.85
2022-09-01T07:57:49.832Z,30.81
2022-09-01T07:58:44.093Z,30.78
2022-09-01T07:59:48.655Z,30.88
2022-09-01T08:00:44.206Z,30.88
2022-09-01T08:01:44.248Z,30.91
2022-09-01T08:02:45.564Z,30.94
2022-09-01T08:03:45.165Z,30.95
2022-09-01T08:04:44.258Z,31.01
2022-09-01T08:05:44.258Z,31.03
2022-09-01T08:06:46.148Z,31.05
2022-09-01T08:07:52.270Z,31.08
2022-09-01T08:08:45.237Z,31.08
2022-09-01T08:09:45.589Z,31.17
2022-09-01T08:10:44.287Z,31.19
2022-09-01T08:12:02.948Z,31.22
2022-09-01T08:12:44.366Z,31.19
2022-09-01T08:13:44.266Z,31.18
2022-09-01T08:14:44.387Z,31.24
2022-09-01T08:16:53.263Z,31.19
2022-09-01T08:17:52.923Z,31.28
2022-09-01T08:18:51.842Z,31.24
2022-09-01T08:19:51.908Z,31.28
2022-09-01T08:20:45.884Z,31.35
2022-09-01T08:24:48.953Z,31.21
2022-09-01T08:25:45.084Z,31.21
2022-09-01T08:26:45.135Z,31.28
2022-09-01T08:27:45.238Z,31.25
2022-09-01T08:28:47.136Z,31.32
2022-09-01T08:29:48.805Z,31.33
2022-09-01T08:30:52.188Z,31.33
2022-09-01T08:31:45.251Z,31.35
2022-09-01T08:32:45.206Z,31.40
2022-09-01T08:33:46.898Z,31.42
2022-09-01T08:34:47.039Z,31.40
2022-09-01T08:35:45.353Z,31.47
2022-09-01T08:36:45.400Z,31.47
2022-09-01T08:37:45.553Z,31.47
2022-09-01T08:38:48.361Z,31.46
2022-09-01T08:39:45.570Z,31.43
2022-09-01T08:40:47.443Z,31.50
2022-09-01T08:41:50.488Z,31.46
2022-09-01T08:42:46.986Z,31.47
2022-09-01T08:43:48.439Z,31.49
2022-09-01T08:44:46.651Z,31.53
2022-09-01T08:45:49.069Z,31.53
2022-09-01T08:46:48.057Z,31.56
2022-09-01T08:48:20.283Z,31.63
2022-09-01T08:49:47.781Z,31.67
2022-09-01T08:50:51.913Z,31.63
2022-09-01T08:51:45.525Z,31.66
2022-09-01T08:52:46.736Z,31.63
2022-09-01T08:53:45.587Z,31.69
2022-09-01T08:54:47.662Z,31.74
2022-09-01T08:55:45.573Z,31.70
2022-09-01T08:56:47.373Z,31.73
2022-09-01T08:57:57.124Z,31.76
2022-09-01T08:58:48.112Z,31.73
2022-09-01T08:59:45.633Z,31.79
2022-09-01T09:00:54.859Z,31.80
2022-09-01T09:01:47.705Z,31.84
2022-09-01T09:02:45.819Z,31.84
2022-09-01T09:03:47.525Z,31.79
2022-09-01T09:04:46.745Z,31.83
2022-09-01T09:05:49.993Z,31.90
2022-09-01T09:06:45.886Z,31.88
2022-09-01T09:07:45.795Z,31.88
2022-09-01T09:08:47.617Z,31.90
2022-09-01T09:09:53.061Z,31.93
2022-09-01T09:10:47.668Z,31.97
2022-09-01T09:11:45.911Z,31.91
2022-09-01T09:12:49.277Z,31.90
2022-09-01T09:13:47.022Z,31.93
2022-09-01T09:14:58.498Z,31.88
2022-09-01T09:15:48.331Z,31.87
2022-09-01T09:16:45.929Z,31.90
2022-09-01T09:17:47.801Z,31.94
2022-09-01T09:19:01.080Z,32.04
2022-09-01T09:19:47.718Z,31.98
2022-09-01T09:20:55.976Z,32.11
2022-09-01T09:21:46.742Z,32.11
2022-09-01T09:22:52.104Z,32.14
2022-09-01T09:23:52.810Z,32.18
2022-09-01T09:24:47.115Z,32.18
2022-09-01T09:25:50.264Z,32.17
2022-09-01T09:26:51.168Z,32.17
2022-09-01T09:28:00.459Z,32.27
2022-09-01T09:28:48.588Z,32.29
2022-09-01T09:29:54.608Z,32.35
2022-09-01T09:30:54.636Z,32.32
2022-09-01T09:31:46.666Z,32.31
2022-09-01T09:33:19.975Z,32.28
2022-09-01T09:35:19.564Z,32.24
2022-09-01T09:38:02.915Z,32.12
2022-09-01T09:39:01.424Z,32.14
2022-09-01T09:40:02.659Z,32.14
2022-09-01T09:41:18.371Z,32.19
2022-09-01T09:41:59.951Z,32.21
2022-09-01T09:43:01.604Z,32.27
2022-09-01T09:44:11.304Z,32.24
2022-09-01T09:45:05.250Z,32.24
2022-09-01T09:46:04.687Z,32.32
2022-09-01T09:47:13.473Z,32.29
2022-09-01T09:48:02.439Z,32.31
2022-09-01T09:49:01.959Z,32.32
2022-09-01T09:50:00.789Z,32.34
2022-09-01T09:51:01.585Z,32.38
2022-09-01T09:51:59.865Z,32.39
2022-09-01T09:53:00.936Z,32.43
2022-09-01T09:53:59.791Z,32.43
2022-09-01T09:55:01.720Z,32.49
2022-09-01T09:56:01.382Z,32.52
2022-09-01T09:56:59.896Z,32.52
2022-09-01T09:57:59.922Z,32.56
2022-09-01T09:59:00.859Z,32.62
2022-09-01T10:00:01.715Z,32.65
2022-09-01T10:01:03.985Z,32.69
2022-09-01T10:13:03.938Z,29.15
2022-09-01T10:14:05.300Z,29.51
2022-09-01T10:15:11.616Z,29.80
2022-09-01T10:16:05.865Z,30.07
2022-09-01T10:17:07.168Z,30.26
2022-09-01T10:18:28.483Z,30.54
2022-09-01T10:19:03.677Z,30.80
2022-09-01T10:20:04.756Z,30.99
2022-09-01T10:21:05.459Z,31.19
2022-09-01T10:22:05.000Z,31.39
2022-09-01T10:23:04.125Z,31.52
2022-09-01T10:24:22.255Z,31.66
2022-09-01T10:25:04.869Z,31.85
2022-09-01T10:26:06.037Z,31.95
2022-09-01T10:27:03.270Z,32.11
2022-09-01T10:28:04.944Z,32.29
2022-09-01T10:29:06.280Z,32.39
2022-09-01T10:30:13.488Z,32.45
2022-09-01T10:31:03.403Z,32.55
2022-09-01T10:32:30.664Z,32.62
2022-09-01T10:33:11.383Z,32.76
2022-09-01T10:34:05.373Z,32.76
2022-09-01T10:35:04.116Z,32.79
2022-09-01T10:36:06.976Z,32.90
2022-09-01T10:37:03.469Z,33.03
2022-09-01T10:38:03.538Z,33.03
2022-09-01T10:39:09.115Z,33.20
2022-09-01T10:40:04.066Z,33.24
2022-09-01T10:41:03.846Z,33.25
2022-09-01T10:42:12.855Z,33.24
2022-09-01T10:43:05.893Z,33.35
2022-09-01T10:44:08.305Z,33.41
2022-09-01T10:45:17.834Z,33.35
2022-09-01T10:46:15.672Z,33.44
2022-09-01T10:47:36.191Z,33.54
2022-09-01T10:48:14.822Z,33.54
2022-09-01T10:49:07.249Z,33.61
2022-09-01T10:50:07.629Z,33.59
2022-09-01T10:51:04.039Z,33.59
2022-09-01T10:52:12.992Z,33.69
2022-09-01T10:53:05.556Z,33.68
2022-09-01T10:54:03.860Z,33.72
2022-09-01T10:55:03.837Z,33.76
2022-09-01T10:56:18.227Z,33.76
2022-09-01T10:57:09.226Z,33.85
2022-09-01T10:59:30.076Z,33.91
2022-09-01T11:00:05.964Z,33.91
2022-09-01T11:01:11.829Z,33.88
2022-09-01T11:03:29.646Z,33.97
2022-09-01T11:04:04.221Z,34.03
2022-09-01T11:05:04.967Z,34.07
2022-09-01T11:06:12.285Z,34.17
2022-09-01T11:07:15.056Z,34.26
2022-09-01T11:08:15.791Z,34.31
2022-09-01T11:09:05.100Z,34.40
2022-09-01T11:10:11.267Z,34.37
2022-09-01T11:11:07.256Z,34.46
2022-09-01T11:12:04.626Z,34.59
2022-09-01T11:13:06.375Z,34.61
2022-09-01T11:14:05.870Z,34.47
2022-09-01T11:16:47.316Z,34.50
2022-09-01T11:17:31.393Z,34.75
2022-09-01T11:18:35.247Z,34.71
2022-09-01T11:19:30.983Z,34.65
2022-09-01T11:20:34.858Z,34.79
2022-09-01T11:21:42.361Z,35.19
2022-09-01T11:22:30.538Z,35.65
2022-09-01T11:23:32.989Z,36.18
2022-09-01T11:24:36.059Z,36.67
2022-09-01T11:25:40.499Z,37.21
2022-09-01T11:26:34.001Z,37.68
2022-09-01T11:27:31.176Z,38.10
2022-09-01T11:28:32.711Z,38.47
2022-09-01T11:29:30.471Z,38.69
2022-09-01T11:30:30.322Z,37.90
2022-09-01T11:31:35.489Z,37.31
2022-09-01T11:32:34.119Z,37.63
2022-09-01T11:33:33.182Z,38.42
2022-09-01T11:34:32.562Z,39.12
2022-09-01T11:35:33.026Z,39.69
2022-09-01T11:36:35.248Z,40.15
2022-09-01T11:37:34.398Z,40.58
2022-09-01T11:38:30.875Z,40.95
2022-09-01T11:39:30.702Z,41.25
2022-09-01T11:40:32.554Z,41.22
2022-09-01T11:41:30.566Z,41.61
2022-09-01T11:42:30.612Z,41.91
2022-09-01T11:43:32.327Z,42.24
2022-09-01T11:44:32.763Z,42.55
2022-09-01T11:45:31.323Z,42.83
2022-09-01T11:46:30.577Z,43.17
2022-09-01T11:47:32.347Z,43.44
2022-09-01T11:48:31.133Z,43.71
2022-09-01T11:49:30.583Z,43.94
2022-09-01T11:50:30.636Z,44.14
2022-09-01T11:51:32.880Z,44.38
2022-09-01T11:52:30.704Z,44.59
2022-09-01T11:53:34.438Z,44.78
2022-09-01T11:54:32.017Z,44.95
2022-09-01T11:55:30.899Z,45.14
2022-09-01T11:56:43.611Z,45.35
2022-09-01T12:01:59.238Z,41.97
2022-09-01T12:02:59.579Z,41.42
2022-09-01T12:03:57.506Z,41.71
2022-09-01T12:05:00.729Z,42.14
2022-09-01T12:05:57.368Z,42.15
2022-09-01T12:06:57.448Z,42.83
2022-09-01T12:08:01.091Z,42.53
2022-09-01T12:08:57.429Z,41.83
2022-09-01T12:09:58.318Z,41.36
2022-09-01T12:11:05.948Z,40.81
2022-09-01T12:12:02.034Z,40.32
2022-09-01T12:13:00.515Z,39.88
2022-09-01T12:14:04.691Z,39.57
2022-09-01T12:15:06.410Z,39.12
2022-09-01T12:17:00.680Z,38.51
2022-09-01T12:18:06.614Z,38.25
2022-09-01T12:18:59.256Z,37.99
2022-09-01T12:19:58.687Z,37.79
2022-09-01T12:20:58.973Z,37.69
2022-09-01T12:21:58.723Z,37.65
2022-09-01T12:23:00.017Z,37.49
2022-09-01T12:23:59.800Z,37.38
2022-09-01T12:24:57.840Z,37.22
2022-09-01T12:25:59.783Z,37.11
2022-09-01T12:26:57.874Z,36.97
2022-09-01T12:27:57.892Z,36.86
2022-09-01T12:29:01.615Z,36.73
2022-09-01T12:29:59.302Z,36.73
2022-09-01T12:30:58.023Z,36.94
2022-09-01T12:31:58.098Z,37.35
2022-09-01T12:34:01.212Z,38.65
2022-09-01T12:34:58.059Z,39.72
2022-09-01T12:35:59.699Z,40.49
2022-09-01T12:36:58.006Z,41.35
2022-09-01T12:37:59.794Z,42.04
2022-09-01T12:38:58.142Z,42.02
2022-09-01T12:39:59.089Z,42.60
2022-09-01T12:40:58.271Z,43.15
2022-09-01T12:41:58.103Z,43.59
2022-09-01T12:42:59.404Z,43.99
2022-09-01T12:43:59.304Z,44.44
2022-09-01T12:44:59.555Z,44.83
2022-09-01T12:46:00.143Z,45.21
2022-09-01T12:46:59.337Z,45.53
2022-09-01T12:48:02.585Z,45.90
2022-09-01T12:48:59.322Z,46.17
2022-09-01T12:50:00.902Z,46.43
2022-09-01T12:50:59.667Z,46.67
2022-09-01T12:52:00.759Z,46.84
2022-09-01T12:52:59.347Z,47.05
2022-09-01T12:53:59.383Z,47.21
2022-09-01T12:55:00.210Z,47.31
2022-09-01T12:55:58.476Z,47.42
2022-09-01T12:56:58.548Z,47.56
2022-09-01T12:57:59.798Z,47.69
2022-09-01T12:58:58.589Z,47.79
2022-09-01T13:00:01.836Z,47.86
2022-09-01T13:00:58.876Z,47.94
2022-09-01T13:02:02.574Z,47.94
2022-09-01T13:02:59.455Z,47.96
2022-09-01T13:03:59.859Z,47.96
2022-09-01T13:04:58.860Z,47.96
2022-09-01T13:06:01.652Z,47.86
2022-09-01T13:07:01.003Z,47.51
2022-09-01T13:07:58.871Z,47.34
2022-09-01T13:08:58.886Z,47.17
2022-09-01T13:10:13.741Z,46.89
2022-09-01T13:10:59.010Z,46.39
2022-09-01T13:12:07.935Z,45.84
2022-09-01T13:12:58.926Z,45.33
2022-09-01T13:14:01.823Z,44.82
2022-09-01T13:14:59.466Z,44.34
2022-09-01T13:15:59.850Z,43.87
2022-09-01T13:17:00.221Z,43.48
2022-09-01T13:17:59.985Z,43.05
2022-09-01T13:19:24.073Z,42.73
2022-09-01T13:20:01.507Z,42.36
2022-09-01T13:21:00.864Z,41.97
2022-09-01T13:22:01.087Z,41.63
2022-09-01T13:23:00.191Z,41.22
2022-09-01T13:23:59.137Z,40.88
2022-09-01T13:25:00.123Z,40.51
2022-09-01T13:26:01.849Z,40.23
2022-09-01T13:27:59.180Z,39.71
2022-09-01T13:29:01.878Z,39.55
2022-09-01T13:30:03.177Z,39.37
2022-09-01T13:34:22.179Z,38.61
2022-09-01T13:35:02.069Z,38.44
2022-09-01T13:35:59.548Z,38.28
2022-09-01T13:37:00.823Z,38.15
2022-09-01T13:38:03.706Z,38.04
2022-09-01T13:39:02.443Z,37.94
2022-09-01T13:40:02.057Z,37.84
2022-09-01T13:40:59.564Z,37.80
2022-09-01T13:41:59.504Z,37.73
2022-09-01T13:43:02.035Z,37.68
2022-09-01T13:43:59.856Z,37.59
2022-09-01T13:45:02.859Z,37.53
2022-09-01T13:46:05.225Z,37.53
2022-09-01T13:47:28.247Z,37.49
2022-09-01T13:48:15.705Z,37.46
2022-09-01T13:49:03.244Z,37.42
2022-09-01T13:50:07.846Z,37.35
2022-09-01T13:51:18.443Z,37.28
2022-09-01T13:52:01.409Z,37.25
2022-09-01T13:53:00.292Z,37.18
2022-09-01T13:54:00.451Z,37.17
2022-09-01T13:55:00.357Z,37.10
2022-09-01T13:55:59.690Z,37.04
2022-09-01T13:56:59.559Z,36.98
2022-09-01T13:58:01.367Z,36.93
2022-09-01T13:59:00.229Z,36.91
2022-09-01T13:59:59.601Z,36.84
2022-09-01T14:01:01.374Z,36.80
2022-09-01T14:01:59.621Z,36.74
2022-09-01T14:03:00.629Z,36.73
2022-09-01T14:04:03.355Z,36.69
2022-09-01T14:05:00.633Z,36.66
2022-09-01T14:05:59.694Z,36.63
2022-09-01T14:06:59.810Z,36.63
2022-09-01T14:08:01.475Z,36.59
2022-09-01T14:08:59.804Z,36.53
2022-09-01T14:09:59.803Z,36.50
2022-09-01T14:10:59.864Z,36.51
2022-09-01T14:12:00.764Z,36.45
2022-09-01T14:13:01.095Z,36.42
2022-09-01T14:13:59.887Z,36.40
2022-09-01T14:15:18.601Z,36.38
2022-09-01T14:16:00.677Z,36.40
2022-09-01T14:16:59.926Z,36.38
2022-09-01T14:17:59.917Z,36.38
2022-09-01T14:18:59.965Z,36.36
2022-09-01T14:20:00.017Z,36.31
2022-09-01T14:21:01.758Z,36.28
2022-09-01T14:21:59.997Z,36.25
2022-09-01T14:22:59.986Z,36.18
2022-09-01T14:24:00.021Z,36.13
2022-09-01T14:25:00.020Z,36.11
2022-09-01T14:26:01.738Z,36.06
2022-09-01T14:27:00.040Z,36.04
2022-09-01T14:28:01.763Z,35.99
2022-09-01T14:29:00.084Z,35.96
2022-09-01T14:30:00.139Z,35.94
2022-09-01T14:32:09.485Z,35.88
2022-09-01T14:33:09.714Z,35.85
2022-09-01T14:34:07.840Z,35.84
2022-09-01T14:35:07.860Z,35.83
2022-09-01T14:36:10.077Z,35.77
2022-09-01T14:37:09.577Z,35.77
2022-09-01T14:38:09.798Z,35.77
2022-09-01T14:39:07.898Z,35.73
2022-09-01T14:40:07.995Z,35.70
2022-09-01T14:41:07.944Z,35.70
2022-09-01T14:42:07.987Z,35.68
2022-09-01T14:43:09.199Z,35.65
2022-09-01T14:44:08.039Z,35.67
2022-09-01T14:45:08.066Z,35.63
2022-09-01T14:46:08.105Z,35.63
2022-09-01T14:47:08.155Z,35.64
2022-09-01T14:48:08.121Z,35.65
2022-09-01T14:49:09.842Z,35.63
2022-09-01T14:51:09.162Z,35.63
2022-09-01T14:52:12.029Z,35.67
2022-09-01T14:53:08.244Z,35.63
2022-09-01T14:54:09.974Z,35.61
2022-09-01T14:55:09.183Z,35.61
2022-09-01T14:56:10.048Z,35.58
2022-09-01T14:58:08.374Z,35.50
2022-09-01T14:59:08.415Z,35.51
2022-09-01T15:00:09.216Z,35.54
2022-09-01T15:01:32.764Z,35.51
2022-09-01T15:02:08.496Z,35.46
2022-09-01T15:03:08.519Z,35.44
2022-09-01T15:04:10.227Z,35.44
2022-09-01T15:05:08.596Z,35.41
2022-09-01T15:06:08.523Z,35.40
2022-09-01T15:07:08.554Z,35.39
2022-09-01T15:08:14.231Z,35.36
2022-09-01T15:09:08.628Z,35.33
2022-09-01T15:10:10.355Z,35.32
2022-09-01T15:11:08.698Z,35.30
2022-09-01T15:12:08.739Z,35.32
2022-09-01T15:13:08.770Z,35.37
2022-09-01T15:14:08.815Z,35.34
2022-09-01T15:15:10.544Z,35.41
2022-09-01T15:16:09.124Z,35.37
2022-09-01T15:17:08.906Z,35.34
2022-09-01T15:18:12.609Z,35.30
2022-09-01T15:19:10.852Z,35.29
2022-09-01T15:20:08.923Z,35.28
2022-09-01T15:21:08.969Z,35.23
2022-09-01T15:22:09.017Z,35.20
2022-09-01T15:23:09.045Z,35.19
2022-09-01T15:24:10.264Z,35.16
2022-09-01T15:25:10.984Z,35.13
2022-09-01T15:26:09.086Z,35.12
2022-09-01T15:27:09.104Z,35.10
2022-09-01T15:28:09.129Z,35.12
2022-09-01T15:29:09.144Z,35.09
2022-09-01T15:30:10.869Z,35.09
2022-09-01T15:31:11.174Z,35.09
2022-09-01T15:32:09.237Z,35.09
2022-09-01T15:33:15.366Z,35.05
2022-09-01T15:34:09.238Z,35.06
2022-09-01T15:35:09.277Z,35.06
2022-09-01T15:36:10.498Z,35.01
2022-09-01T15:37:09.442Z,34.98
2022-09-01T15:38:09.356Z,34.95
2022-09-01T15:39:10.576Z,34.98
2022-09-01T15:40:09.534Z,34.91
2022-09-01T15:41:09.409Z,34.91
2022-09-01T15:42:11.356Z,34.91
2022-09-01T15:43:11.008Z,34.88
2022-09-01T15:44:09.471Z,34.85
2022-09-01T15:45:09.481Z,34.84
2022-09-01T15:46:09.511Z,34.84
2022-09-01T15:47:09.533Z,34.82
2022-09-01T15:48:11.252Z,34.81
2022-09-01T15:49:09.595Z,34.79
2022-09-01T15:50:09.640Z,34.78
2022-09-01T15:51:09.685Z,34.75
2022-09-01T15:52:09.703Z,34.72
2022-09-01T15:53:11.462Z,34.71
2022-09-01T15:54:09.831Z,34.69
2022-09-01T15:55:09.735Z,34.68
2022-09-01T15:56:09.759Z,34.65
2022-09-01T15:57:09.795Z,34.67
2022-09-01T15:58:11.514Z,34.65
2022-09-01T15:59:09.842Z,34.62
2022-09-01T16:00:09.865Z,34.61
2022-09-01T16:12:22.446Z,30.75
2022-09-01T16:13:20.788Z,31.11
2022-09-01T16:14:23.927Z,31.35
2022-09-01T16:15:21.727Z,31.56
2022-09-01T16:16:21.730Z,31.76
2022-09-01T16:17:23.987Z,31.94
2022-09-01T16:18:21.049Z,32.15
2022-09-01T16:19:24.639Z,32.31
2022-09-01T16:20:20.890Z,32.46
2022-09-01T16:21:22.654Z,32.61
2022-09-01T16:22:24.309Z,32.72
2022-09-01T16:23:24.040Z,32.86
2022-09-01T16:24:23.870Z,32.94
2022-09-01T16:25:20.930Z,33.03
2022-09-01T16:26:24.101Z,33.14
2022-09-01T16:27:21.020Z,33.20
2022-09-01T16:28:22.758Z,33.25
2022-09-01T16:29:22.963Z,33.35
2022-09-01T16:30:21.060Z,33.40
2022-09-01T16:31:21.278Z,33.44
2022-09-01T16:32:21.087Z,33.48
2022-09-01T16:33:21.086Z,33.52
2022-09-01T16:34:26.168Z,33.55
2022-09-01T16:35:21.143Z,33.57
2022-09-01T16:36:21.144Z,33.62
2022-09-01T16:37:23.815Z,33.66
2022-09-01T16:38:21.275Z,33.68
2022-09-01T16:39:22.886Z,33.68
2022-09-01T16:40:21.250Z,33.69
2022-09-01T16:41:21.226Z,33.72
2022-09-01T16:42:22.946Z,33.75
2022-09-01T16:43:21.236Z,33.75
2022-09-01T16:44:22.970Z,33.76
2022-09-01T16:45:23.216Z,33.77
2022-09-01T16:46:21.345Z,33.76
2022-09-01T16:47:21.359Z,33.75
2022-09-01T16:48:21.491Z,33.76
2022-09-01T16:49:23.318Z,33.76
2022-09-01T16:50:23.314Z,33.77
2022-09-01T16:51:22.247Z,33.76
2022-09-01T16:52:23.169Z,33.77
2022-09-01T16:53:21.469Z,33.76
2022-09-01T16:54:21.462Z,33.76
2022-09-01T16:55:22.681Z,33.76
2022-09-01T16:56:21.523Z,33.75
2022-09-01T16:57:21.630Z,33.75
2022-09-01T16:58:21.860Z,33.75
2022-09-01T16:59:23.302Z,33.72
2022-09-01T17:00:21.650Z,33.72
2022-09-01T17:01:23.442Z,33.71
2022-09-01T17:02:21.835Z,33.72
2022-09-01T17:03:22.892Z,33.71
2022-09-01T17:04:21.836Z,33.71
2022-09-01T17:05:23.453Z,33.66
2022-09-01T17:06:21.799Z,33.68
2022-09-01T17:07:24.226Z,33.65
2022-09-01T17:08:21.824Z,33.65
2022-09-01T17:09:23.054Z,33.66
2022-09-01T17:10:21.815Z,33.64
2022-09-01T17:11:21.838Z,33.68
2022-09-01T17:12:23.655Z,33.66
2022-09-01T17:13:24.666Z,33.65
2022-09-01T17:14:21.948Z,33.62
2022-09-01T17:15:23.670Z,33.62
2022-09-01T17:16:22.086Z,33.61
2022-09-01T17:17:21.972Z,33.61
2022-09-01T17:18:23.092Z,33.59
2022-09-01T17:19:21.940Z,33.59
2022-09-01T17:20:23.657Z,33.59
2022-09-01T17:21:21.989Z,33.58
2022-09-01T17:22:22.029Z,33.58
2022-09-01T17:23:28.518Z,33.55
2022-09-01T17:24:22.159Z,33.54
2022-09-01T17:25:23.943Z,33.55
2022-09-01T17:26:22.160Z,33.52
2022-09-01T17:27:22.190Z,33.54
2022-09-01T17:28:23.181Z,33.51
2022-09-01T17:29:24.022Z,33.51
2022-09-01T17:30:23.746Z,33.51
2022-09-01T17:31:24.045Z,33.51
2022-09-01T17:32:22.359Z,33.52
2022-09-01T17:33:24.055Z,33.49
2022-09-01T17:34:22.342Z,33.48
2022-09-01T17:35:24.073Z,33.45
2022-09-01T17:36:22.453Z,33.44
2022-09-01T17:37:22.458Z,33.47
2022-09-01T17:38:22.542Z,33.45
2022-09-01T17:39:22.469Z,33.45
2022-09-01T17:40:23.828Z,33.40
2022-09-01T17:41:23.443Z,33.41
2022-09-01T17:42:22.515Z,33.38
2022-09-01T17:43:22.561Z,33.40
2022-09-01T17:44:22.609Z,33.35
2022-09-01T17:45:22.596Z,33.35
2022-09-01T17:46:22.703Z,33.35
2022-09-01T17:47:23.375Z,33.37
2022-09-01T17:48:22.879Z,33.32
2022-09-01T17:49:22.696Z,33.32
2022-09-01T17:50:22.701Z,33.31
2022-09-01T17:51:22.688Z,33.34
2022-09-01T17:52:23.439Z,33.30
2022-09-01T17:53:26.117Z,33.32
2022-09-01T17:54:22.796Z,33.27
2022-09-01T17:55:22.790Z,33.28
2022-09-01T17:56:23.525Z,33.25
2022-09-01T17:57:22.789Z,33.21
2022-09-01T17:58:25.391Z,33.24
2022-09-01T17:59:24.740Z,33.21
2022-09-01T18:00:24.483Z,33.20
2022-09-01T18:01:24.765Z,33.18